createdAt,value
2018-08-30T00:38:18.872Z,20.10
2018-08-30T00:43:24.629Z,20.00
2018-08-30T00:48:29.944Z,19.90
2018-08-30T00:53:33.421Z,19.90
2018-08-30T00:58:36.733Z,19.90
2018-08-30T01:03:40.075Z,19.90
2018-08-30T01:08:43.347Z,19.80
2018-08-30T01:13:46.663Z,19.70
2018-08-30T01:18:49.991Z,19.60
2018-08-30T01:23:53.351Z,19.50
2018-08-30T01:28:56.659Z,19.40
2018-08-30T01:33:59.968Z,19.40
2018-08-30T01:39:03.346Z,19.40
2018-08-30T01:44:11.984Z,19.30
2018-08-30T01:49:15.351Z,19.20
2018-08-30T01:54:18.682Z,19.20
2018-08-30T01:59:22.564Z,19.00
2018-08-30T02:04:25.871Z,18.80
2018-08-30T02:09:30.153Z,18.60
2018-08-30T02:14:33.574Z,18.40
2018-08-30T02:19:39.955Z,18.50
2018-08-30T02:24:43.287Z,18.50
2018-08-30T02:29:46.640Z,18.30
2018-08-30T02:34:49.953Z,18.30
2018-08-30T02:39:53.284Z,18.30
2018-08-30T02:44:56.593Z,18.10
2018-08-30T02:50:00.125Z,18.10
2018-08-30T02:55:03.490Z,18.10
2018-08-30T03:00:06.945Z,18.10
2018-08-30T03:05:11.280Z,18.20
2018-08-30T03:10:14.609Z,18.20
2018-08-30T03:15:17.984Z,18.30
2018-08-30T03:20:21.937Z,18.30
2018-08-30T03:25:25.224Z,18.20
2018-08-30T03:30:28.759Z,18.30
2018-08-30T03:35:31.939Z,18.30
2018-08-30T03:40:35.272Z,18.20
2018-08-30T03:45:39.319Z,18.10
2018-08-30T03:50:43.525Z,18.10
2018-08-30T03:55:46.793Z,18.10
2018-08-30T04:00:50.100Z,18.20
2018-08-30T04:05:56.012Z,18.10
2018-08-30T04:10:59.546Z,18.00
2018-08-30T04:16:02.921Z,17.90
2018-08-30T04:21:06.290Z,17.80
2018-08-30T04:26:09.609Z,17.80
2018-08-30T04:31:15.023Z,17.80
2018-08-30T04:36:18.352Z,18.00
2018-08-30T04:41:21.753Z,18.00
2018-08-30T04:46:25.160Z,18.10
2018-08-30T04:51:29.152Z,18.10
2018-08-30T04:56:32.392Z,18.00
2018-08-30T05:01:37.486Z,17.90
2018-08-30T05:06:44.742Z,17.80
2018-08-30T05:11:48.021Z,17.90
2018-08-30T05:16:51.320Z,18.00
2018-08-30T05:21:54.718Z,17.90
2018-08-30T05:27:00.935Z,17.90
2018-08-30T05:32:04.216Z,17.60
2018-08-30T05:37:08.272Z,17.60
2018-08-30T05:42:11.637Z,17.80
2018-08-30T05:47:15.030Z,17.80
2018-08-30T05:52:18.448Z,17.80
2018-08-30T05:57:22.788Z,17.70
2018-08-30T06:02:27.736Z,17.80
2018-08-30T06:07:31.181Z,17.90
2018-08-30T06:12:35.259Z,18.10
2018-08-30T06:17:40.377Z,17.90
2018-08-30T06:22:43.676Z,18.10
2018-08-30T06:27:47.003Z,18.30
2018-08-30T06:32:50.441Z,18.20
2018-08-30T06:37:54.397Z,18.30
2018-08-30T06:42:57.778Z,18.30
2018-08-30T06:48:01.676Z,18.10
2018-08-30T06:53:05.204Z,18.30
2018-08-30T06:58:08.796Z,18.40
2018-08-30T07:03:16.197Z,18.20
2018-08-30T07:08:19.522Z,18.20
2018-08-30T07:13:22.765Z,18.50
2018-08-30T07:18:26.094Z,18.80
2018-08-30T07:23:29.448Z,19.00
2018-08-30T07:28:32.826Z,19.40
2018-08-30T07:33:36.288Z,19.70
2018-08-30T07:38:39.670Z,19.70
2018-08-30T07:43:43.233Z,19.80
2018-08-30T07:48:46.560Z,19.90
2018-08-30T07:53:49.861Z,19.70
2018-08-30T07:58:53.174Z,19.70
2018-08-30T08:03:56.510Z,19.60
2018-08-30T08:08:59.886Z,19.70
2018-08-30T08:14:03.260Z,19.80
2018-08-30T08:19:06.792Z,19.60
2018-08-30T08:24:10.128Z,19.50
2018-08-30T08:29:13.542Z,19.40
2018-08-30T08:34:16.837Z,19.20
2018-08-30T08:39:20.213Z,19.30
2018-08-30T08:44:24.343Z,19.60
2018-08-30T08:49:27.606Z,19.80
2018-08-30T08:54:30.901Z,19.80
2018-08-30T08:59:34.494Z,20.10
2018-08-30T09:04:38.250Z,20.20
2018-08-30T09:09:41.580Z,20.50
2018-08-30T09:14:44.905Z,20.80
2018-08-30T09:19:48.358Z,20.90
2018-08-30T09:24:51.703Z,21.30
2018-08-30T09:29:55.615Z,21.60
2018-08-30T09:34:59.059Z,21.60
2018-08-30T09:40:02.404Z,21.30
2018-08-30T09:45:05.724Z,21.30
2018-08-30T09:50:09.025Z,21.40
2018-08-30T09:55:12.359Z,21.60
2018-08-30T10:01:20.993Z,21.80
2018-08-30T10:06:24.475Z,22.00
2018-08-30T10:11:27.859Z,22.20
2018-08-30T10:16:31.459Z,22.50
2018-08-30T10:21:37.437Z,22.80
2018-08-30T10:26:41.416Z,23.30
2018-08-30T10:31:53.244Z,23.40
2018-08-30T10:37:00.819Z,23.20
2018-08-30T10:42:04.241Z,23.40
2018-08-30T10:47:07.606Z,24.60
2018-08-30T10:52:11.964Z,25.30
2018-08-30T10:57:15.283Z,25.30
2018-08-30T11:02:18.759Z,25.20
2018-08-30T11:07:22.034Z,25.30
2018-08-30T11:12:25.392Z,24.90
2018-08-30T11:17:28.768Z,24.50
2018-08-30T11:22:32.280Z,23.80
2018-08-30T11:27:36.306Z,23.20
2018-08-30T11:32:39.847Z,23.20
2018-08-30T11:37:43.215Z,23.30
2018-08-30T11:42:46.380Z,23.30
2018-08-30T11:47:50.714Z,23.00
2018-08-30T11:52:54.040Z,23.20
2018-08-30T11:57:57.383Z,23.80
2018-08-30T12:03:01.771Z,23.60
2018-08-30T12:08:05.729Z,23.40
2018-08-30T12:13:08.912Z,23.70
2018-08-30T12:18:12.214Z,23.60
2018-08-30T12:23:17.596Z,23.90
2018-08-30T12:28:21.068Z,24.90
2018-08-30T12:33:25.102Z,25.40
2018-08-30T12:38:29.014Z,25.90
2018-08-30T12:43:32.479Z,26.60
2018-08-30T12:48:35.682Z,26.40
2018-08-30T12:53:39.126Z,26.80
2018-08-30T12:58:42.475Z,27.40
2018-08-30T13:03:45.868Z,27.20
2018-08-30T13:08:49.974Z,26.50
2018-08-30T13:13:53.082Z,26.60
2018-08-30T13:18:56.948Z,26.90
2018-08-30T13:24:01.368Z,27.00
2018-08-30T13:29:04.660Z,27.00
2018-08-30T13:34:08.294Z,26.50
2018-08-30T13:39:12.473Z,27.20
2018-08-30T13:44:15.917Z,27.40
2018-08-30T13:49:19.145Z,26.70
2018-08-30T13:54:22.592Z,26.20
2018-08-30T13:59:26.175Z,26.20
2018-08-30T14:04:29.522Z,26.20
2018-08-30T14:09:32.585Z,26.50
2018-08-30T14:14:35.913Z,26.70
2018-08-30T14:19:39.227Z,26.40
2018-08-30T14:24:42.523Z,26.20
2018-08-30T14:29:45.865Z,26.20
2018-08-30T14:34:53.265Z,26.00
2018-08-30T14:39:58.255Z,25.80
2018-08-30T14:45:01.577Z,26.20
2018-08-30T14:50:06.017Z,26.20
2018-08-30T14:55:09.460Z,26.10
2018-08-30T15:00:13.054Z,26.60
2018-08-30T15:05:16.418Z,26.40
2018-08-30T15:10:19.770Z,26.40
2018-08-30T15:15:23.196Z,26.20
2018-08-30T15:20:26.628Z,25.60
2018-08-30T15:25:29.944Z,25.70
2018-08-30T15:30:34.180Z,25.80
2018-08-30T15:35:37.476Z,25.90
2018-08-30T15:40:40.930Z,26.20
2018-08-30T15:45:44.857Z,26.10
2018-08-30T15:50:48.190Z,26.00
2018-08-30T15:55:51.816Z,25.90
2018-08-30T16:01:20.391Z,25.70
2018-08-30T16:06:23.832Z,25.30
2018-08-30T16:11:27.213Z,25.10
2018-08-30T16:16:30.907Z,25.30
2018-08-30T16:38:16.725Z,24.90
2018-08-30T16:43:20.286Z,24.00
2018-08-30T16:48:23.753Z,23.50
2018-08-30T16:53:29.182Z,23.20
2018-08-30T16:58:32.691Z,23.30
2018-08-30T17:03:37.055Z,23.30
2018-08-30T17:08:40.474Z,22.90
2018-08-30T17:13:43.816Z,22.80
2018-08-30T17:18:49.465Z,22.90
2018-08-30T17:23:52.910Z,23.10
2018-08-30T17:28:56.298Z,23.20
2018-08-30T17:33:59.801Z,23.10
2018-08-30T17:39:04.097Z,23.00
2018-08-30T17:44:08.497Z,22.80
2018-08-30T17:49:13.015Z,22.40
2018-08-30T17:54:17.075Z,22.30
2018-08-30T17:59:20.431Z,22.40
2018-08-30T18:04:23.975Z,22.30
2018-08-30T18:09:28.424Z,22.30
2018-08-30T18:14:34.256Z,22.00
2018-08-30T18:19:38.728Z,21.80
2018-08-30T18:24:42.171Z,21.80
2018-08-30T18:29:45.814Z,21.60
2018-08-30T18:35:29.085Z,21.30
2018-08-30T18:40:33.892Z,21.20
2018-08-30T18:45:37.748Z,21.20
2018-08-30T18:50:41.418Z,20.90
2018-08-30T18:55:45.924Z,20.80
2018-08-30T19:00:50.457Z,20.90
2018-08-30T19:05:55.457Z,20.60
2018-08-30T19:11:00.390Z,20.50
2018-08-30T19:16:09.093Z,20.40
2018-08-30T19:21:13.313Z,20.20
2018-08-30T19:26:18.757Z,20.10
2018-08-30T19:31:22.921Z,20.20
2018-08-30T19:36:31.409Z,19.90
2018-08-30T19:41:35.200Z,19.80
2018-08-30T19:46:39.329Z,19.80
2018-08-30T19:51:43.189Z,19.70
2018-08-30T19:56:46.921Z,19.60
2018-08-30T20:01:51.790Z,19.50
2018-08-30T20:06:55.325Z,19.30
2018-08-30T20:11:59.915Z,19.30
2018-08-30T20:17:03.380Z,19.10
2018-08-30T20:22:10.261Z,19.00
2018-08-30T20:27:13.662Z,19.00
2018-08-30T20:32:17.065Z,19.00
2018-08-30T20:37:20.507Z,19.10
2018-08-30T20:42:24.097Z,19.00
2018-08-30T20:47:27.577Z,19.20
2018-08-30T20:52:30.927Z,19.20
2018-08-30T20:57:34.451Z,19.10
2018-08-30T21:02:38.390Z,18.90
2018-08-30T21:07:41.782Z,18.70
2018-08-30T21:12:45.196Z,18.60
2018-08-30T21:17:48.622Z,18.60
2018-08-30T21:23:18.734Z,18.40
2018-08-30T21:28:22.128Z,18.30
2018-08-30T21:33:25.726Z,18.10
2018-08-30T21:38:29.111Z,18.00
2018-08-30T21:43:32.414Z,17.80
2018-08-30T21:48:35.799Z,17.70
2018-08-30T21:53:39.257Z,17.60
2018-08-30T21:58:42.769Z,17.40
2018-08-30T22:03:46.090Z,17.40
2018-08-30T22:08:49.491Z,17.30
2018-08-30T22:13:53.117Z,17.30
2018-08-30T22:18:56.618Z,17.20
2018-08-30T22:24:00.472Z,17.20
2018-08-30T22:29:04.245Z,17.20
2018-08-30T22:34:07.560Z,17.20
2018-08-30T22:39:10.937Z,17.10
2018-08-30T22:44:14.223Z,17.10
2018-08-30T22:49:17.550Z,17.10
2018-08-30T22:54:20.835Z,17.10
2018-08-30T22:59:24.265Z,17.00
2018-08-30T23:04:27.550Z,16.90
2018-08-30T23:09:30.839Z,16.80
2018-08-30T23:14:34.293Z,16.70
2018-08-30T23:19:37.680Z,16.60
2018-08-30T23:24:41.095Z,16.50
2018-08-30T23:29:44.307Z,16.50
2018-08-30T23:34:47.742Z,16.50
2018-08-30T23:39:50.973Z,16.40
2018-08-30T23:44:54.301Z,16.40
2018-08-30T23:49:57.623Z,16.40
2018-08-30T23:55:00.956Z,16.20
